sensor_id;sensor_type;location;lat;lon;timestamp;P1;durP1;ratioP1;P2;durP2;ratioP2
81154;SDS011;70631;50.436;7.826;2023-09-08T00:00:07;6.60;;;4.35;;
81154;SDS011;70631;50.436;7.826;2023-09-08T00:02:34;5.32;;;4.60;;
81154;SDS011;70631;50.436;7.826;2023-09-08T00:04:59;5.45;;;4.40;;
81154;SDS011;70631;50.436;7.826;2023-09-08T00:07:25;6.13;;;4.60;;
81154;SDS011;70631;50.436;7.826;2023-09-08T00:09:50;5.97;;;4.40;;
81154;SDS011;70631;50.436;7.826;2023-09-08T00:12:15;5.83;;;4.43;;
81154;SDS011;70631;50.436;7.826;2023-09-08T00:14:41;5.88;;;4.53;;
81154;SDS011;70631;50.436;7.826;2023-09-08T00:17:07;7.53;;;4.18;;
81154;SDS011;70631;50.436;7.826;2023-09-08T00:19:32;7.35;;;4.60;;
81154;SDS011;70631;50.436;7.826;2023-09-08T00:21:58;8.15;;;5.20;;
81154;SDS011;70631;50.436;7.826;2023-09-08T00:24:23;7.88;;;4.95;;
81154;SDS011;70631;50.436;7.826;2023-09-08T00:26:48;9.10;;;5.82;;
81154;SDS011;70631;50.436;7.826;2023-09-08T00:29:14;6.13;;;4.67;;
81154;SDS011;70631;50.436;7.826;2023-09-08T00:31:39;6.17;;;4.57;;
81154;SDS011;70631;50.436;7.826;2023-09-08T00:34:05;7.27;;;6.10;;
81154;SDS011;70631;50.436;7.826;2023-09-08T00:36:31;7.72;;;4.20;;
81154;SDS011;70631;50.436;7.826;2023-09-08T00:38:56;5.18;;;4.68;;
81154;SDS011;70631;50.436;7.826;2023-09-08T00:41:22;7.33;;;5.67;;
81154;SDS011;70631;50.436;7.826;2023-09-08T00:43:48;6.32;;;4.90;;
81154;SDS011;70631;50.436;7.826;2023-09-08T00:46:14;5.95;;;5.32;;
81154;SDS011;70631;50.436;7.826;2023-09-08T00:48:39;8.23;;;4.37;;
81154;SDS011;70631;50.436;7.826;2023-09-08T00:51:04;7.27;;;4.90;;
81154;SDS011;70631;50.436;7.826;2023-09-08T00:53:30;6.60;;;5.15;;
81154;SDS011;70631;50.436;7.826;2023-09-08T00:55:56;5.95;;;5.10;;
81154;SDS011;70631;50.436;7.826;2023-09-08T00:58:23;7.68;;;4.63;;
81154;SDS011;70631;50.436;7.826;2023-09-08T01:00:49;4.97;;;4.47;;
81154;SDS011;70631;50.436;7.826;2023-09-08T01:03:14;5.90;;;5.30;;
81154;SDS011;70631;50.436;7.826;2023-09-08T01:05:39;6.67;;;5.10;;
81154;SDS011;70631;50.436;7.826;2023-09-08T01:08:05;6.70;;;4.90;;
81154;SDS011;70631;50.436;7.826;2023-09-08T01:10:31;7.70;;;4.30;;
81154;SDS011;70631;50.436;7.826;2023-09-08T01:12:57;6.35;;;4.78;;
81154;SDS011;70631;50.436;7.826;2023-09-08T01:15:22;4.95;;;4.35;;
81154;SDS011;70631;50.436;7.826;2023-09-08T01:17:48;5.65;;;4.50;;
81154;SDS011;70631;50.436;7.826;2023-09-08T01:20:23;7.63;;;5.00;;
81154;SDS011;70631;50.436;7.826;2023-09-08T01:25:25;9.95;;;4.60;;
81154;SDS011;70631;50.436;7.826;2023-09-08T01:27:52;6.60;;;4.43;;
81154;SDS011;70631;50.436;7.826;2023-09-08T01:30:19;6.57;;;5.07;;
81154;SDS011;70631;50.436;7.826;2023-09-08T01:32:46;6.38;;;4.85;;
81154;SDS011;70631;50.436;7.826;2023-09-08T01:35:11;6.80;;;4.93;;
81154;SDS011;70631;50.436;7.826;2023-09-08T01:37:55;6.68;;;5.13;;
81154;SDS011;70631;50.436;7.826;2023-09-08T01:40:21;6.35;;;4.38;;
81154;SDS011;70631;50.436;7.826;2023-09-08T01:42:47;6.45;;;4.85;;
81154;SDS011;70631;50.436;7.826;2023-09-08T01:45:12;5.57;;;4.75;;
81154;SDS011;70631;50.436;7.826;2023-09-08T01:47:38;7.00;;;4.50;;
81154;SDS011;70631;50.436;7.826;2023-09-08T01:50:03;5.17;;;4.67;;
81154;SDS011;70631;50.436;7.826;2023-09-08T01:52:30;7.43;;;4.57;;
81154;SDS011;70631;50.436;7.826;2023-09-08T01:54:55;7.77;;;4.43;;
81154;SDS011;70631;50.436;7.826;2023-09-08T01:57:20;7.70;;;4.70;;
81154;SDS011;70631;50.436;7.826;2023-09-08T01:59:46;5.97;;;4.10;;
81154;SDS011;70631;50.436;7.826;2023-09-08T02:02:11;6.57;;;4.67;;
81154;SDS011;70631;50.436;7.826;2023-09-08T02:04:36;5.60;;;4.40;;
81154;SDS011;70631;50.436;7.826;2023-09-08T02:07:02;6.53;;;4.50;;
81154;SDS011;70631;50.436;7.826;2023-09-08T02:09:32;4.80;;;4.32;;
81154;SDS011;70631;50.436;7.826;2023-09-08T02:12:01;7.85;;;4.60;;
81154;SDS011;70631;50.436;7.826;2023-09-08T02:14:27;7.38;;;4.32;;
81154;SDS011;70631;50.436;7.826;2023-09-08T02:16:53;4.70;;;4.00;;
81154;SDS011;70631;50.436;7.826;2023-09-08T02:19:19;4.97;;;4.47;;
81154;SDS011;70631;50.436;7.826;2023-09-08T02:21:44;7.27;;;4.67;;
81154;SDS011;70631;50.436;7.826;2023-09-08T02:24:09;7.67;;;4.60;;
81154;SDS011;70631;50.436;7.826;2023-09-08T02:26:34;4.87;;;4.37;;
81154;SDS011;70631;50.436;7.826;2023-09-08T02:29:00;5.85;;;4.60;;
81154;SDS011;70631;50.436;7.826;2023-09-08T02:31:28;8.00;;;4.53;;
81154;SDS011;70631;50.436;7.826;2023-09-08T02:33:53;7.43;;;5.03;;
81154;SDS011;70631;50.436;7.826;2023-09-08T02:36:19;6.63;;;3.90;;
81154;SDS011;70631;50.436;7.826;2023-09-08T02:38:50;5.88;;;4.93;;
81154;SDS011;70631;50.436;7.826;2023-09-08T02:41:18;5.93;;;4.22;;
81154;SDS011;70631;50.436;7.826;2023-09-08T02:43:44;5.55;;;4.53;;
81154;SDS011;70631;50.436;7.826;2023-09-08T02:46:09;5.03;;;4.28;;
81154;SDS011;70631;50.436;7.826;2023-09-08T02:48:35;6.03;;;4.80;;
81154;SDS011;70631;50.436;7.826;2023-09-08T02:51:00;6.32;;;4.63;;
81154;SDS011;70631;50.436;7.826;2023-09-08T02:53:26;6.10;;;4.78;;
81154;SDS011;70631;50.436;7.826;2023-09-08T02:55:53;6.15;;;4.13;;
81154;SDS011;70631;50.436;7.826;2023-09-08T02:58:22;7.88;;;4.40;;
81154;SDS011;70631;50.436;7.826;2023-09-08T03:00:48;6.78;;;4.45;;
81154;SDS011;70631;50.436;7.826;2023-09-08T03:03:13;6.05;;;4.97;;
81154;SDS011;70631;50.436;7.826;2023-09-08T03:05:39;8.30;;;4.90;;
81154;SDS011;70631;50.436;7.826;2023-09-08T03:08:05;6.20;;;4.85;;
81154;SDS011;70631;50.436;7.826;2023-09-08T03:10:30;6.78;;;4.65;;
81154;SDS011;70631;50.436;7.826;2023-09-08T03:12:59;5.75;;;4.28;;
81154;SDS011;70631;50.436;7.826;2023-09-08T03:15:25;5.30;;;4.80;;
81154;SDS011;70631;50.436;7.826;2023-09-08T03:17:53;5.03;;;4.20;;
81154;SDS011;70631;50.436;7.826;2023-09-08T03:20:23;5.85;;;4.65;;
81154;SDS011;70631;50.436;7.826;2023-09-08T03:22:50;7.55;;;4.10;;
81154;SDS011;70631;50.436;7.826;2023-09-08T03:25:16;5.67;;;3.90;;
81154;SDS011;70631;50.436;7.826;2023-09-08T03:27:41;4.75;;;4.22;;
81154;SDS011;70631;50.436;7.826;2023-09-08T03:30:06;6.60;;;4.17;;
81154;SDS011;70631;50.436;7.826;2023-09-08T03:32:32;6.43;;;4.40;;
81154;SDS011;70631;50.436;7.826;2023-09-08T03:34:57;4.45;;;4.00;;
81154;SDS011;70631;50.436;7.826;2023-09-08T03:37:23;6.17;;;4.47;;
81154;SDS011;70631;50.436;7.826;2023-09-08T03:39:48;4.97;;;4.20;;
81154;SDS011;70631;50.436;7.826;2023-09-08T03:42:14;4.93;;;4.07;;
81154;SDS011;70631;50.436;7.826;2023-09-08T03:44:39;6.23;;;4.67;;
81154;SDS011;70631;50.436;7.826;2023-09-08T03:47:04;5.10;;;4.53;;
81154;SDS011;70631;50.436;7.826;2023-09-08T03:49:30;4.75;;;4.30;;
81154;SDS011;70631;50.436;7.826;2023-09-08T03:51:56;6.35;;;4.88;;
81154;SDS011;70631;50.436;7.826;2023-09-08T03:54:21;6.07;;;4.43;;
81154;SDS011;70631;50.436;7.826;2023-09-08T03:56:46;7.50;;;5.10;;
81154;SDS011;70631;50.436;7.826;2023-09-08T03:59:11;7.07;;;5.50;;
81154;SDS011;70631;50.436;7.826;2023-09-08T04:01:37;6.13;;;4.80;;
81154;SDS011;70631;50.436;7.826;2023-09-08T04:04:02;5.22;;;4.30;;
81154;SDS011;70631;50.436;7.826;2023-09-08T04:06:28;5.38;;;4.55;;
81154;SDS011;70631;50.436;7.826;2023-09-08T04:08:53;6.93;;;4.67;;
81154;SDS011;70631;50.436;7.826;2023-09-08T04:11:18;6.07;;;4.53;;
81154;SDS011;70631;50.436;7.826;2023-09-08T04:13:43;6.37;;;4.33;;
81154;SDS011;70631;50.436;7.826;2023-09-08T04:16:09;7.20;;;4.03;;
81154;SDS011;70631;50.436;7.826;2023-09-08T04:18:35;7.13;;;3.95;;
81154;SDS011;70631;50.436;7.826;2023-09-08T04:21:00;7.90;;;4.97;;
81154;SDS011;70631;50.436;7.826;2023-09-08T04:23:25;8.63;;;4.10;;
81154;SDS011;70631;50.436;7.826;2023-09-08T04:25:51;7.53;;;4.27;;
81154;SDS011;70631;50.436;7.826;2023-09-08T04:28:16;5.07;;;4.25;;
81154;SDS011;70631;50.436;7.826;2023-09-08T04:30:41;5.53;;;4.17;;
81154;SDS011;70631;50.436;7.826;2023-09-08T04:33:06;6.80;;;4.90;;
81154;SDS011;70631;50.436;7.826;2023-09-08T04:35:32;6.17;;;4.80;;
81154;SDS011;70631;50.436;7.826;2023-09-08T04:37:57;6.57;;;5.20;;
81154;SDS011;70631;50.436;7.826;2023-09-08T04:40:22;8.50;;;4.83;;
81154;SDS011;70631;50.436;7.826;2023-09-08T04:42:47;11.40;;;4.40;;
81154;SDS011;70631;50.436;7.826;2023-09-08T04:45:13;4.70;;;3.93;;
81154;SDS011;70631;50.436;7.826;2023-09-08T04:47:38;6.00;;;4.47;;
81154;SDS011;70631;50.436;7.826;2023-09-08T04:50:04;6.37;;;4.37;;
81154;SDS011;70631;50.436;7.826;2023-09-08T04:52:29;4.68;;;4.00;;
81154;SDS011;70631;50.436;7.826;2023-09-08T04:54:55;5.70;;;4.00;;
81154;SDS011;70631;50.436;7.826;2023-09-08T04:57:20;11.57;;;4.77;;
81154;SDS011;70631;50.436;7.826;2023-09-08T04:59:45;5.73;;;4.30;;
81154;SDS011;70631;50.436;7.826;2023-09-08T05:02:11;7.47;;;4.93;;
81154;SDS011;70631;50.436;7.826;2023-09-08T05:04:36;7.03;;;4.50;;
81154;SDS011;70631;50.436;7.826;2023-09-08T05:07:02;7.18;;;4.68;;
81154;SDS011;70631;50.436;7.826;2023-09-08T05:09:27;5.07;;;4.38;;
81154;SDS011;70631;50.436;7.826;2023-09-08T05:11:52;7.07;;;4.60;;
81154;SDS011;70631;50.436;7.826;2023-09-08T05:14:18;8.70;;;4.40;;
81154;SDS011;70631;50.436;7.826;2023-09-08T05:16:43;8.87;;;5.00;;
81154;SDS011;70631;50.436;7.826;2023-09-08T05:19:11;9.43;;;4.47;;
81154;SDS011;70631;50.436;7.826;2023-09-08T05:21:40;7.07;;;4.53;;
81154;SDS011;70631;50.436;7.826;2023-09-08T05:24:06;7.38;;;4.50;;
81154;SDS011;70631;50.436;7.826;2023-09-08T05:26:33;6.75;;;5.07;;
81154;SDS011;70631;50.436;7.826;2023-09-08T05:28:59;6.80;;;4.70;;
81154;SDS011;70631;50.436;7.826;2023-09-08T05:31:24;6.87;;;4.83;;
81154;SDS011;70631;50.436;7.826;2023-09-08T05:33:51;6.22;;;4.97;;
81154;SDS011;70631;50.436;7.826;2023-09-08T05:36:16;7.53;;;5.37;;
81154;SDS011;70631;50.436;7.826;2023-09-08T05:38:41;11.53;;;5.27;;
81154;SDS011;70631;50.436;7.826;2023-09-08T05:41:06;11.50;;;5.57;;
81154;SDS011;70631;50.436;7.826;2023-09-08T05:43:32;8.63;;;4.90;;
81154;SDS011;70631;50.436;7.826;2023-09-08T05:45:57;8.17;;;5.07;;
81154;SDS011;70631;50.436;7.826;2023-09-08T05:48:22;6.43;;;4.83;;
81154;SDS011;70631;50.436;7.826;2023-09-08T05:50:47;5.50;;;4.47;;
81154;SDS011;70631;50.436;7.826;2023-09-08T05:53:13;7.05;;;5.10;;
81154;SDS011;70631;50.436;7.826;2023-09-08T05:55:38;7.17;;;4.77;;
81154;SDS011;70631;50.436;7.826;2023-09-08T05:58:04;7.15;;;5.15;;
81154;SDS011;70631;50.436;7.826;2023-09-08T06:00:32;7.55;;;5.03;;
81154;SDS011;70631;50.436;7.826;2023-09-08T06:02:57;8.10;;;5.43;;
81154;SDS011;70631;50.436;7.826;2023-09-08T06:05:22;9.70;;;4.47;;
81154;SDS011;70631;50.436;7.826;2023-09-08T06:07:47;7.57;;;4.80;;
81154;SDS011;70631;50.436;7.826;2023-09-08T06:10:14;9.48;;;5.53;;
81154;SDS011;70631;50.436;7.826;2023-09-08T06:12:39;13.73;;;6.13;;
81154;SDS011;70631;50.436;7.826;2023-09-08T06:15:06;8.47;;;5.13;;
81154;SDS011;70631;50.436;7.826;2023-09-08T06:17:31;13.27;;;5.93;;
81154;SDS011;70631;50.436;7.826;2023-09-08T06:19:56;15.57;;;6.30;;
81154;SDS011;70631;50.436;7.826;2023-09-08T06:22:22;6.63;;;5.10;;
81154;SDS011;70631;50.436;7.826;2023-09-08T06:24:47;6.40;;;4.43;;
81154;SDS011;70631;50.436;7.826;2023-09-08T06:27:13;8.37;;;5.93;;
81154;SDS011;70631;50.436;7.826;2023-09-08T06:29:39;8.18;;;6.00;;
81154;SDS011;70631;50.436;7.826;2023-09-08T06:32:06;10.63;;;6.13;;
81154;SDS011;70631;50.436;7.826;2023-09-08T06:34:31;14.40;;;7.20;;
81154;SDS011;70631;50.436;7.826;2023-09-08T06:36:57;11.52;;;6.38;;
81154;SDS011;70631;50.436;7.826;2023-09-08T06:39:22;12.27;;;6.60;;
81154;SDS011;70631;50.436;7.826;2023-09-08T06:41:50;13.40;;;6.32;;
81154;SDS011;70631;50.436;7.826;2023-09-08T06:44:15;9.73;;;6.17;;
81154;SDS011;70631;50.436;7.826;2023-09-08T06:46:40;8.80;;;5.67;;
81154;SDS011;70631;50.436;7.826;2023-09-08T06:49:06;10.60;;;5.53;;
81154;SDS011;70631;50.436;7.826;2023-09-08T06:51:31;12.27;;;5.73;;
81154;SDS011;70631;50.436;7.826;2023-09-08T06:53:57;10.00;;;5.50;;
81154;SDS011;70631;50.436;7.826;2023-09-08T06:56:24;8.90;;;5.32;;
81154;SDS011;70631;50.436;7.826;2023-09-08T06:58:50;5.80;;;5.17;;
81154;SDS011;70631;50.436;7.826;2023-09-08T07:01:15;7.53;;;5.10;;
81154;SDS011;70631;50.436;7.826;2023-09-08T07:03:40;6.43;;;5.13;;
81154;SDS011;70631;50.436;7.826;2023-09-08T07:06:05;5.47;;;4.97;;
81154;SDS011;70631;50.436;7.826;2023-09-08T07:08:31;6.63;;;5.00;;
81154;SDS011;70631;50.436;7.826;2023-09-08T07:10:56;6.57;;;5.27;;
81154;SDS011;70631;50.436;7.826;2023-09-08T07:13:21;6.43;;;5.07;;
81154;SDS011;70631;50.436;7.826;2023-09-08T07:15:47;7.30;;;4.87;;
81154;SDS011;70631;50.436;7.826;2023-09-08T07:18:12;9.33;;;5.10;;
81154;SDS011;70631;50.436;7.826;2023-09-08T07:20:37;7.00;;;5.07;;
81154;SDS011;70631;50.436;7.826;2023-09-08T07:23:02;5.43;;;4.43;;
81154;SDS011;70631;50.436;7.826;2023-09-08T07:25:28;5.63;;;4.93;;
81154;SDS011;70631;50.436;7.826;2023-09-08T07:27:53;5.50;;;5.00;;
81154;SDS011;70631;50.436;7.826;2023-09-08T07:30:19;6.23;;;5.30;;
81154;SDS011;70631;50.436;7.826;2023-09-08T07:32:47;5.93;;;5.13;;
81154;SDS011;70631;50.436;7.826;2023-09-08T07:35:12;5.70;;;5.13;;
81154;SDS011;70631;50.436;7.826;2023-09-08T07:37:40;6.18;;;5.20;;
81154;SDS011;70631;50.436;7.826;2023-09-08T07:40:06;5.00;;;4.47;;
81154;SDS011;70631;50.436;7.826;2023-09-08T07:42:34;6.88;;;4.70;;
81154;SDS011;70631;50.436;7.826;2023-09-08T07:44:59;8.00;;;4.40;;
81154;SDS011;70631;50.436;7.826;2023-09-08T07:47:24;6.07;;;4.70;;
81154;SDS011;70631;50.436;7.826;2023-09-08T07:49:49;5.87;;;4.70;;
81154;SDS011;70631;50.436;7.826;2023-09-08T07:52:15;7.38;;;5.15;;
81154;SDS011;70631;50.436;7.826;2023-09-08T07:54:40;5.43;;;4.72;;
81154;SDS011;70631;50.436;7.826;2023-09-08T07:57:05;6.00;;;4.60;;
81154;SDS011;70631;50.436;7.826;2023-09-08T07:59:31;5.70;;;4.50;;
81154;SDS011;70631;50.436;7.826;2023-09-08T08:01:56;5.03;;;4.60;;
81154;SDS011;70631;50.436;7.826;2023-09-08T08:04:21;8.27;;;4.47;;
81154;SDS011;70631;50.436;7.826;2023-09-08T08:06:46;6.73;;;4.63;;
81154;SDS011;70631;50.436;7.826;2023-09-08T08:09:13;4.78;;;4.38;;
81154;SDS011;70631;50.436;7.826;2023-09-08T08:11:38;6.07;;;4.23;;
81154;SDS011;70631;50.436;7.826;2023-09-08T08:14:03;5.10;;;4.63;;
81154;SDS011;70631;50.436;7.826;2023-09-08T08:16:29;6.03;;;4.85;;
81154;SDS011;70631;50.436;7.826;2023-09-08T08:18:54;4.85;;;4.45;;
81154;SDS011;70631;50.436;7.826;2023-09-08T08:21:19;4.80;;;4.40;;
81154;SDS011;70631;50.436;7.826;2023-09-08T08:23:44;5.63;;;4.87;;
81154;SDS011;70631;50.436;7.826;2023-09-08T08:26:10;5.07;;;4.10;;
81154;SDS011;70631;50.436;7.826;2023-09-08T08:28:35;5.33;;;4.83;;
81154;SDS011;70631;50.436;7.826;2023-09-08T08:31:00;4.77;;;4.30;;
81154;SDS011;70631;50.436;7.826;2023-09-08T08:33:26;5.05;;;4.25;;
81154;SDS011;70631;50.436;7.826;2023-09-08T08:35:52;4.80;;;4.38;;
81154;SDS011;70631;50.436;7.826;2023-09-08T08:38:18;5.05;;;4.55;;
81154;SDS011;70631;50.436;7.826;2023-09-08T08:40:43;5.13;;;4.63;;
81154;SDS011;70631;50.436;7.826;2023-09-08T08:43:09;8.02;;;4.65;;
81154;SDS011;70631;50.436;7.826;2023-09-08T08:45:34;5.10;;;4.63;;
81154;SDS011;70631;50.436;7.826;2023-09-08T08:48:02;4.95;;;4.40;;
81154;SDS011;70631;50.436;7.826;2023-09-08T08:50:29;8.38;;;4.65;;
81154;SDS011;70631;50.436;7.826;2023-09-08T08:52:56;11.82;;;5.32;;
81154;SDS011;70631;50.436;7.826;2023-09-08T08:55:22;6.30;;;4.00;;
81154;SDS011;70631;50.436;7.826;2023-09-08T08:57:50;9.18;;;4.45;;
81154;SDS011;70631;50.436;7.826;2023-09-08T09:00:15;6.70;;;4.40;;
81154;SDS011;70631;50.436;7.826;2023-09-08T09:02:43;7.90;;;4.55;;
81154;SDS011;70631;50.436;7.826;2023-09-08T09:05:09;7.32;;;4.68;;
81154;SDS011;70631;50.436;7.826;2023-09-08T09:07:36;6.03;;;4.60;;
81154;SDS011;70631;50.436;7.826;2023-09-08T09:10:02;5.32;;;4.82;;
81154;SDS011;70631;50.436;7.826;2023-09-08T09:12:28;5.35;;;4.68;;
81154;SDS011;70631;50.436;7.826;2023-09-08T09:14:54;4.60;;;4.20;;
81154;SDS011;70631;50.436;7.826;2023-09-08T09:17:19;4.87;;;4.47;;
81154;SDS011;70631;50.436;7.826;2023-09-08T09:19:44;4.95;;;4.35;;
81154;SDS011;70631;50.436;7.826;2023-09-08T09:22:10;7.20;;;4.53;;
81154;SDS011;70631;50.436;7.826;2023-09-08T09:24:36;6.20;;;4.00;;
81154;SDS011;70631;50.436;7.826;2023-09-08T09:27:08;4.15;;;3.83;;
81154;SDS011;70631;50.436;7.826;2023-09-08T09:29:43;8.02;;;5.05;;
81154;SDS011;70631;50.436;7.826;2023-09-08T09:32:11;8.20;;;4.70;;
81154;SDS011;70631;50.436;7.826;2023-09-08T09:34:38;4.53;;;4.00;;
81154;SDS011;70631;50.436;7.826;2023-09-08T09:37:12;5.63;;;4.30;;
81154;SDS011;70631;50.436;7.826;2023-09-08T09:39:38;5.30;;;4.60;;
81154;SDS011;70631;50.436;7.826;2023-09-08T09:42:03;7.27;;;4.63;;
81154;SDS011;70631;50.436;7.826;2023-09-08T09:44:29;4.88;;;4.47;;
81154;SDS011;70631;50.436;7.826;2023-09-08T09:46:54;5.13;;;4.38;;
81154;SDS011;70631;50.436;7.826;2023-09-08T09:49:20;7.00;;;4.40;;
81154;SDS011;70631;50.436;7.826;2023-09-08T09:51:49;8.65;;;4.72;;
81154;SDS011;70631;50.436;7.826;2023-09-08T09:54:18;6.88;;;4.82;;
81154;SDS011;70631;50.436;7.826;2023-09-08T09:56:44;5.35;;;4.35;;
81154;SDS011;70631;50.436;7.826;2023-09-08T09:59:12;5.28;;;4.78;;
81154;SDS011;70631;50.436;7.826;2023-09-08T10:01:39;6.15;;;4.13;;
81154;SDS011;70631;50.436;7.826;2023-09-08T10:04:06;5.55;;;4.20;;
81154;SDS011;70631;50.436;7.826;2023-09-08T10:06:32;4.50;;;4.10;;
81154;SDS011;70631;50.436;7.826;2023-09-08T10:08:59;4.78;;;4.30;;
81154;SDS011;70631;50.436;7.826;2023-09-08T10:11:28;6.22;;;4.57;;
81154;SDS011;70631;50.436;7.826;2023-09-08T10:13:55;7.28;;;4.53;;
81154;SDS011;70631;50.436;7.826;2023-09-08T10:16:23;4.28;;;3.88;;
81154;SDS011;70631;50.436;7.826;2023-09-08T10:18:53;6.35;;;4.05;;
81154;SDS011;70631;50.436;7.826;2023-09-08T10:21:21;6.35;;;4.28;;
81154;SDS011;70631;50.436;7.826;2023-09-08T10:23:59;5.72;;;4.30;;
81154;SDS011;70631;50.436;7.826;2023-09-08T10:26:30;6.63;;;4.18;;
81154;SDS011;70631;50.436;7.826;2023-09-08T10:28:58;5.18;;;4.30;;
81154;SDS011;70631;50.436;7.826;2023-09-08T10:31:26;4.47;;;4.07;;
81154;SDS011;70631;50.436;7.826;2023-09-08T10:33:54;4.95;;;4.45;;
81154;SDS011;70631;50.436;7.826;2023-09-08T10:36:22;4.75;;;4.07;;
81154;SDS011;70631;50.436;7.826;2023-09-08T10:38:48;6.18;;;4.53;;
81154;SDS011;70631;50.436;7.826;2023-09-08T10:43:54;5.50;;;4.30;;
81154;SDS011;70631;50.436;7.826;2023-09-08T10:46:28;10.27;;;4.78;;
81154;SDS011;70631;50.436;7.826;2023-09-08T10:49:00;6.13;;;4.20;;
81154;SDS011;70631;50.436;7.826;2023-09-08T10:51:28;5.63;;;4.97;;
81154;SDS011;70631;50.436;7.826;2023-09-08T10:53:54;4.82;;;4.07;;
81154;SDS011;70631;50.436;7.826;2023-09-08T10:56:19;4.50;;;4.20;;
81154;SDS011;70631;50.436;7.826;2023-09-08T10:58:48;4.73;;;4.33;;
81154;SDS011;70631;50.436;7.826;2023-09-08T11:01:16;4.95;;;4.55;;
81154;SDS011;70631;50.436;7.826;2023-09-08T11:03:43;5.38;;;4.40;;
81154;SDS011;70631;50.436;7.826;2023-09-08T11:06:11;4.68;;;4.28;;
81154;SDS011;70631;50.436;7.826;2023-09-08T11:08:38;6.32;;;4.32;;
81154;SDS011;70631;50.436;7.826;2023-09-08T11:11:06;5.20;;;4.70;;
81154;SDS011;70631;50.436;7.826;2023-09-08T11:13:31;5.50;;;4.43;;
81154;SDS011;70631;50.436;7.826;2023-09-08T11:15:56;5.10;;;4.67;;
81154;SDS011;70631;50.436;7.826;2023-09-08T11:18:31;4.63;;;3.90;;
81154;SDS011;70631;50.436;7.826;2023-09-08T11:20:59;4.80;;;4.30;;
81154;SDS011;70631;50.436;7.826;2023-09-08T11:23:26;4.93;;;4.53;;
81154;SDS011;70631;50.436;7.826;2023-09-08T11:25:52;4.90;;;4.43;;
81154;SDS011;70631;50.436;7.826;2023-09-08T11:28:17;5.80;;;4.05;;
81154;SDS011;70631;50.436;7.826;2023-09-08T11:30:47;4.63;;;4.03;;
81154;SDS011;70631;50.436;7.826;2023-09-08T11:33:19;5.75;;;4.22;;
81154;SDS011;70631;50.436;7.826;2023-09-08T11:35:52;4.72;;;4.32;;
81154;SDS011;70631;50.436;7.826;2023-09-08T11:38:24;5.40;;;4.85;;
81154;SDS011;70631;50.436;7.826;2023-09-08T11:40:56;6.32;;;4.53;;
81154;SDS011;70631;50.436;7.826;2023-09-08T11:43:23;4.80;;;4.28;;
81154;SDS011;70631;50.436;7.826;2023-09-08T11:45:49;4.90;;;4.20;;
81154;SDS011;70631;50.436;7.826;2023-09-08T11:48:15;5.07;;;4.20;;
81154;SDS011;70631;50.436;7.826;2023-09-08T11:50:41;5.95;;;4.00;;
81154;SDS011;70631;50.436;7.826;2023-09-08T11:53:07;4.70;;;4.30;;
81154;SDS011;70631;50.436;7.826;2023-09-08T11:55:33;4.45;;;3.92;;
81154;SDS011;70631;50.436;7.826;2023-09-08T11:58:00;5.43;;;4.32;;
81154;SDS011;70631;50.436;7.826;2023-09-08T12:00:26;6.03;;;4.05;;
81154;SDS011;70631;50.436;7.826;2023-09-08T12:02:53;4.60;;;3.58;;
81154;SDS011;70631;50.436;7.826;2023-09-08T12:05:24;5.00;;;4.50;;
81154;SDS011;70631;50.436;7.826;2023-09-08T12:07:51;7.20;;;4.28;;
81154;SDS011;70631;50.436;7.826;2023-09-08T12:10:19;4.22;;;3.80;;
81154;SDS011;70631;50.436;7.826;2023-09-08T12:12:45;4.88;;;4.32;;
81154;SDS011;70631;50.436;7.826;2023-09-08T12:15:10;7.03;;;3.97;;
81154;SDS011;70631;50.436;7.826;2023-09-08T12:17:49;5.05;;;4.60;;
81154;SDS011;70631;50.436;7.826;2023-09-08T12:20:14;6.65;;;4.00;;
81154;SDS011;70631;50.436;7.826;2023-09-08T12:22:50;5.97;;;4.10;;
81154;SDS011;70631;50.436;7.826;2023-09-08T12:25:16;7.38;;;4.22;;
81154;SDS011;70631;50.436;7.826;2023-09-08T12:27:42;4.43;;;3.70;;
81154;SDS011;70631;50.436;7.826;2023-09-08T12:30:16;7.72;;;4.40;;
81154;SDS011;70631;50.436;7.826;2023-09-08T12:32:44;5.95;;;4.03;;
81154;SDS011;70631;50.436;7.826;2023-09-08T12:35:12;5.72;;;4.07;;
81154;SDS011;70631;50.436;7.826;2023-09-08T12:37:38;5.57;;;3.97;;
81154;SDS011;70631;50.436;7.826;2023-09-08T12:40:03;5.25;;;3.80;;
81154;SDS011;70631;50.436;7.826;2023-09-08T12:42:29;6.30;;;4.50;;
81154;SDS011;70631;50.436;7.826;2023-09-08T12:44:54;7.90;;;3.90;;
81154;SDS011;70631;50.436;7.826;2023-09-08T12:47:20;6.65;;;4.03;;
81154;SDS011;70631;50.436;7.826;2023-09-08T12:49:46;4.00;;;3.70;;
81154;SDS011;70631;50.436;7.826;2023-09-08T12:52:11;4.18;;;3.75;;
81154;SDS011;70631;50.436;7.826;2023-09-08T12:54:36;4.77;;;3.47;;
81154;SDS011;70631;50.436;7.826;2023-09-08T12:57:02;4.30;;;4.00;;
81154;SDS011;70631;50.436;7.826;2023-09-08T12:59:27;4.72;;;4.03;;
81154;SDS011;70631;50.436;7.826;2023-09-08T13:01:52;4.35;;;3.70;;
81154;SDS011;70631;50.436;7.826;2023-09-08T13:04:18;6.13;;;3.97;;
81154;SDS011;70631;50.436;7.826;2023-09-08T13:06:44;4.22;;;3.55;;
81154;SDS011;70631;50.436;7.826;2023-09-08T13:09:10;6.55;;;3.88;;
81154;SDS011;70631;50.436;7.826;2023-09-08T13:11:35;5.97;;;3.93;;
81154;SDS011;70631;50.436;7.826;2023-09-08T13:14:00;5.50;;;3.90;;
81154;SDS011;70631;50.436;7.826;2023-09-08T13:16:26;4.00;;;3.70;;
81154;SDS011;70631;50.436;7.826;2023-09-08T13:18:51;4.03;;;3.73;;
81154;SDS011;70631;50.436;7.826;2023-09-08T13:21:16;4.50;;;3.67;;
81154;SDS011;70631;50.436;7.826;2023-09-08T13:23:41;4.87;;;3.30;;
81154;SDS011;70631;50.436;7.826;2023-09-08T13:26:07;4.60;;;3.17;;
81154;SDS011;70631;50.436;7.826;2023-09-08T13:28:32;4.20;;;3.80;;
81154;SDS011;70631;50.436;7.826;2023-09-08T13:30:57;4.27;;;3.37;;
81154;SDS011;70631;50.436;7.826;2023-09-08T13:33:22;4.47;;;3.20;;
81154;SDS011;70631;50.436;7.826;2023-09-08T13:35:48;5.03;;;3.60;;
81154;SDS011;70631;50.436;7.826;2023-09-08T13:38:13;4.97;;;3.83;;
81154;SDS011;70631;50.436;7.826;2023-09-08T13:40:38;5.17;;;3.60;;
81154;SDS011;70631;50.436;7.826;2023-09-08T13:43:04;4.63;;;3.72;;
81154;SDS011;70631;50.436;7.826;2023-09-08T13:45:30;4.80;;;3.13;;
81154;SDS011;70631;50.436;7.826;2023-09-08T13:47:55;3.57;;;3.20;;
81154;SDS011;70631;50.436;7.826;2023-09-08T13:50:20;3.53;;;3.23;;
81154;SDS011;70631;50.436;7.826;2023-09-08T13:52:48;4.03;;;3.58;;
81154;SDS011;70631;50.436;7.826;2023-09-08T13:55:13;4.57;;;3.20;;
81154;SDS011;70631;50.436;7.826;2023-09-08T13:57:39;3.42;;;3.15;;
81154;SDS011;70631;50.436;7.826;2023-09-08T14:00:04;3.80;;;3.40;;
81154;SDS011;70631;50.436;7.826;2023-09-08T14:02:30;3.22;;;2.92;;
81154;SDS011;70631;50.436;7.826;2023-09-08T14:04:55;6.67;;;3.40;;
81154;SDS011;70631;50.436;7.826;2023-09-08T14:07:21;3.80;;;3.47;;
81154;SDS011;70631;50.436;7.826;2023-09-08T14:09:46;3.77;;;3.43;;
81154;SDS011;70631;50.436;7.826;2023-09-08T14:12:11;5.90;;;3.20;;
81154;SDS011;70631;50.436;7.826;2023-09-08T14:14:37;4.00;;;3.00;;
81154;SDS011;70631;50.436;7.826;2023-09-08T14:17:02;5.55;;;3.65;;
81154;SDS011;70631;50.436;7.826;2023-09-08T14:19:28;3.60;;;3.28;;
81154;SDS011;70631;50.436;7.826;2023-09-08T14:21:53;3.50;;;3.20;;
81154;SDS011;70631;50.436;7.826;2023-09-08T14:24:18;4.70;;;3.42;;
81154;SDS011;70631;50.436;7.826;2023-09-08T14:26:44;3.63;;;3.27;;
81154;SDS011;70631;50.436;7.826;2023-09-08T14:29:09;4.43;;;3.40;;
81154;SDS011;70631;50.436;7.826;2023-09-08T14:31:34;4.63;;;3.43;;
81154;SDS011;70631;50.436;7.826;2023-09-08T14:34:00;3.45;;;3.15;;
81154;SDS011;70631;50.436;7.826;2023-09-08T14:36:25;5.10;;;3.10;;
81154;SDS011;70631;50.436;7.826;2023-09-08T14:38:50;5.32;;;3.17;;
81154;SDS011;70631;50.436;7.826;2023-09-08T14:41:16;4.97;;;3.40;;
81154;SDS011;70631;50.436;7.826;2023-09-08T14:43:41;3.83;;;3.27;;
81154;SDS011;70631;50.436;7.826;2023-09-08T14:46:06;4.68;;;2.97;;